CYQU

Grande Prairie Airport

Grande Prairie, Alberta, Canada
METAR CYQU 191300Z 22006KT 25SM SKC 01/M02 A2995 RMK SLP175
Observed Flight Rules
Nov-19 @ 13:00 UTC (53 minutes ago) Visual Flight Rules
Wind Visibility Clouds
220° at 6 knots 25 miles
  • Clear skies
Temperatures Readings
Current 1°C / 34°F
Dewpoint -2°C / 28°F
Humidity 81%
Altimeter 29.95" Hg
Pressure 1017.5 hPa
Elevation 669
METAR CYQU 191300Z 22006KT 25SM SKC 01/M02 A2995 RMK SLP175
Observed Flight Rules
Nov-19 @ 13:00 UTC
(53 minutes ago)
VFR
Wind Visibility
220° at 6 knots 25 miles
Clouds
  • Clear skies
Temperature Dewpoint
1°C / 34°F -2°C / 28°F
Humidity Altimeter Pressure
81% 29.95" Hg 1017.5 hPa